sensor_id;sensor_type;location;lat;lon;timestamp;temperature;humidity
38237;DHT22;50101;49.438;11.098;2023-05-02T00:01:41;19.50;56.10
38237;DHT22;50101;49.438;11.098;2023-05-02T00:04:07;19.60;56.30
38237;DHT22;50101;49.438;11.098;2023-05-02T00:06:34;19.50;56.20
38237;DHT22;50101;49.438;11.098;2023-05-02T00:09:02;19.50;56.20
38237;DHT22;50101;49.438;11.098;2023-05-02T00:11:29;19.60;56.20
38237;DHT22;50101;49.438;11.098;2023-05-02T00:13:55;19.50;56.10
38237;DHT22;50101;49.438;11.098;2023-05-02T00:16:22;19.60;56.20
38237;DHT22;50101;49.438;11.098;2023-05-02T00:18:49;19.60;56.10
38237;DHT22;50101;49.438;11.098;2023-05-02T00:21:15;19.50;56.10
38237;DHT22;50101;49.438;11.098;2023-05-02T00:23:42;19.60;56.00
38237;DHT22;50101;49.438;11.098;2023-05-02T00:26:09;19.50;55.90
38237;DHT22;50101;49.438;11.098;2023-05-02T00:28:36;19.60;56.00
38237;DHT22;50101;49.438;11.098;2023-05-02T00:31:03;19.60;56.00
38237;DHT22;50101;49.438;11.098;2023-05-02T00:33:30;19.60;56.00
38237;DHT22;50101;49.438;11.098;2023-05-02T00:35:57;19.60;55.90
38237;DHT22;50101;49.438;11.098;2023-05-02T00:38:23;19.60;56.00
38237;DHT22;50101;49.438;11.098;2023-05-02T00:40:50;19.60;56.00
38237;DHT22;50101;49.438;11.098;2023-05-02T00:43:18;19.60;56.00
38237;DHT22;50101;49.438;11.098;2023-05-02T00:45:46;19.60;56.00
38237;DHT22;50101;49.438;11.098;2023-05-02T00:48:13;19.60;56.00
38237;DHT22;50101;49.438;11.098;2023-05-02T00:50:41;19.60;56.00
38237;DHT22;50101;49.438;11.098;2023-05-02T00:53:09;19.60;55.40
38237;DHT22;50101;49.438;11.098;2023-05-02T00:55:36;19.60;55.90
38237;DHT22;50101;49.438;11.098;2023-05-02T00:58:11;19.60;56.00
38237;DHT22;50101;49.438;11.098;2023-05-02T01:09:33;19.60;55.70
38237;DHT22;50101;49.438;11.098;2023-05-02T01:12:26;19.60;55.70
38237;DHT22;50101;49.438;11.098;2023-05-02T01:14:55;19.60;55.60
38237;DHT22;50101;49.438;11.098;2023-05-02T01:17:26;19.60;55.60
38237;DHT22;50101;49.438;11.098;2023-05-02T01:19:57;19.60;55.70
38237;DHT22;50101;49.438;11.098;2023-05-02T01:22:27;19.70;55.60
38237;DHT22;50101;49.438;11.098;2023-05-02T01:25:11;19.70;55.50
38237;DHT22;50101;49.438;11.098;2023-05-02T01:30:33;19.70;55.70
38237;DHT22;50101;49.438;11.098;2023-05-02T01:33:02;19.60;55.70
38237;DHT22;50101;49.438;11.098;2023-05-02T01:35:31;19.60;55.70
38237;DHT22;50101;49.438;11.098;2023-05-02T01:37:59;19.60;55.50
38237;DHT22;50101;49.438;11.098;2023-05-02T01:40:28;19.60;55.50
38237;DHT22;50101;49.438;11.098;2023-05-02T01:42:56;19.60;55.50
38237;DHT22;50101;49.438;11.098;2023-05-02T01:45:24;19.70;55.40
38237;DHT22;50101;49.438;11.098;2023-05-02T01:47:51;19.70;55.40
38237;DHT22;50101;49.438;11.098;2023-05-02T01:50:21;19.70;55.40
38237;DHT22;50101;49.438;11.098;2023-05-02T01:52:51;19.60;55.40
38237;DHT22;50101;49.438;11.098;2023-05-02T01:55:19;19.60;55.40
38237;DHT22;50101;49.438;11.098;2023-05-02T01:57:46;19.70;55.40
38237;DHT22;50101;49.438;11.098;2023-05-02T02:00:16;19.70;55.50
38237;DHT22;50101;49.438;11.098;2023-05-02T02:02:45;19.70;55.30
38237;DHT22;50101;49.438;11.098;2023-05-02T02:05:13;19.70;55.20
38237;DHT22;50101;49.438;11.098;2023-05-02T02:07:40;19.70;55.20
38237;DHT22;50101;49.438;11.098;2023-05-02T02:10:07;19.70;55.30
38237;DHT22;50101;49.438;11.098;2023-05-02T02:12:57;19.70;55.10
38237;DHT22;50101;49.438;11.098;2023-05-02T02:15:32;19.70;55.30
38237;DHT22;50101;49.438;11.098;2023-05-02T02:18:03;19.70;55.30
38237;DHT22;50101;49.438;11.098;2023-05-02T02:20:31;19.60;55.20
38237;DHT22;50101;49.438;11.098;2023-05-02T02:22:59;19.60;55.20
38237;DHT22;50101;49.438;11.098;2023-05-02T02:25:28;19.70;54.60
38237;DHT22;50101;49.438;11.098;2023-05-02T02:27:56;19.70;55.10
38237;DHT22;50101;49.438;11.098;2023-05-02T02:30:23;19.70;55.20
38237;DHT22;50101;49.438;11.098;2023-05-02T02:32:49;19.70;55.10
38237;DHT22;50101;49.438;11.098;2023-05-02T02:35:16;19.70;55.20
38237;DHT22;50101;49.438;11.098;2023-05-02T02:37:47;19.70;55.10
38237;DHT22;50101;49.438;11.098;2023-05-02T02:40:28;19.70;55.10
38237;DHT22;50101;49.438;11.098;2023-05-02T02:43:02;19.80;55.10
38237;DHT22;50101;49.438;11.098;2023-05-02T02:45:56;19.70;55.00
38237;DHT22;50101;49.438;11.098;2023-05-02T02:48:36;19.80;54.80
38237;DHT22;50101;49.438;11.098;2023-05-02T02:51:12;19.70;54.90
38237;DHT22;50101;49.438;11.098;2023-05-02T02:54:02;19.70;55.10
38237;DHT22;50101;49.438;11.098;2023-05-02T02:56:57;19.70;55.00
38237;DHT22;50101;49.438;11.098;2023-05-02T02:59:30;19.80;54.90
38237;DHT22;50101;49.438;11.098;2023-05-02T03:02:11;19.70;54.80
38237;DHT22;50101;49.438;11.098;2023-05-02T03:04:40;19.80;54.90
38237;DHT22;50101;49.438;11.098;2023-05-02T03:07:09;19.80;54.80
38237;DHT22;50101;49.438;11.098;2023-05-02T03:09:40;19.90;54.90
38237;DHT22;50101;49.438;11.098;2023-05-02T03:12:07;19.80;54.90
38237;DHT22;50101;49.438;11.098;2023-05-02T03:14:35;19.80;54.80
38237;DHT22;50101;49.438;11.098;2023-05-02T03:17:01;19.80;54.80
38237;DHT22;50101;49.438;11.098;2023-05-02T03:19:29;19.90;54.70
38237;DHT22;50101;49.438;11.098;2023-05-02T03:21:56;19.80;54.70
38237;DHT22;50101;49.438;11.098;2023-05-02T03:24:22;19.80;54.60
38237;DHT22;50101;49.438;11.098;2023-05-02T03:26:49;19.90;54.60
38237;DHT22;50101;49.438;11.098;2023-05-02T03:29:19;19.90;54.50
38237;DHT22;50101;49.438;11.098;2023-05-02T03:31:46;19.90;54.50
38237;DHT22;50101;49.438;11.098;2023-05-02T03:34:12;19.90;54.60
38237;DHT22;50101;49.438;11.098;2023-05-02T03:36:39;19.80;54.50
38237;DHT22;50101;49.438;11.098;2023-05-02T03:39:06;19.90;54.40
38237;DHT22;50101;49.438;11.098;2023-05-02T03:41:32;19.90;54.40
38237;DHT22;50101;49.438;11.098;2023-05-02T03:43:59;19.90;54.30
38237;DHT22;50101;49.438;11.098;2023-05-02T03:46:26;20.00;54.50
38237;DHT22;50101;49.438;11.098;2023-05-02T03:48:52;19.90;54.50
38237;DHT22;50101;49.438;11.098;2023-05-02T03:51:19;20.00;54.50
38237;DHT22;50101;49.438;11.098;2023-05-02T03:53:46;20.00;54.50
38237;DHT22;50101;49.438;11.098;2023-05-02T03:56:16;19.90;54.70
38237;DHT22;50101;49.438;11.098;2023-05-02T03:58:46;19.90;54.70
38237;DHT22;50101;49.438;11.098;2023-05-02T04:01:14;19.90;54.60
38237;DHT22;50101;49.438;11.098;2023-05-02T04:03:41;19.90;54.60
38237;DHT22;50101;49.438;11.098;2023-05-02T04:06:08;19.90;54.60
38237;DHT22;50101;49.438;11.098;2023-05-02T04:08:35;19.80;54.50
38237;DHT22;50101;49.438;11.098;2023-05-02T04:11:02;19.80;54.60
38237;DHT22;50101;49.438;11.098;2023-05-02T04:13:29;19.90;54.60
38237;DHT22;50101;49.438;11.098;2023-05-02T04:15:55;19.90;54.70
38237;DHT22;50101;49.438;11.098;2023-05-02T04:18:22;19.90;54.60
38237;DHT22;50101;49.438;11.098;2023-05-02T04:20:49;19.90;54.60
38237;DHT22;50101;49.438;11.098;2023-05-02T04:23:16;19.90;54.80
38237;DHT22;50101;49.438;11.098;2023-05-02T04:26:01;19.90;54.80
38237;DHT22;50101;49.438;11.098;2023-05-02T04:28:28;19.90;54.90
38237;DHT22;50101;49.438;11.098;2023-05-02T04:30:55;19.80;54.60
38237;DHT22;50101;49.438;11.098;2023-05-02T04:33:22;19.90;54.50
38237;DHT22;50101;49.438;11.098;2023-05-02T04:35:50;20.00;54.70
38237;DHT22;50101;49.438;11.098;2023-05-02T04:38:18;20.00;54.60
38237;DHT22;50101;49.438;11.098;2023-05-02T04:40:45;20.10;54.40
38237;DHT22;50101;49.438;11.098;2023-05-02T04:43:11;20.10;54.20
38237;DHT22;50101;49.438;11.098;2023-05-02T04:45:38;20.10;54.40
38237;DHT22;50101;49.438;11.098;2023-05-02T04:48:05;20.10;54.60
38237;DHT22;50101;49.438;11.098;2023-05-02T04:50:31;20.20;54.70
38237;DHT22;50101;49.438;11.098;2023-05-02T04:52:58;20.20;55.40
38237;DHT22;50101;49.438;11.098;2023-05-02T04:55:25;20.20;54.60
38237;DHT22;50101;49.438;11.098;2023-05-02T04:57:52;20.30;54.60
38237;DHT22;50101;49.438;11.098;2023-05-02T05:00:18;20.30;54.70
38237;DHT22;50101;49.438;11.098;2023-05-02T05:02:45;20.10;55.00
38237;DHT22;50101;49.438;11.098;2023-05-02T05:05:12;20.20;54.90
38237;DHT22;50101;49.438;11.098;2023-05-02T05:07:38;20.30;54.90
38237;DHT22;50101;49.438;11.098;2023-05-02T05:10:06;20.30;54.80
38237;DHT22;50101;49.438;11.098;2023-05-02T05:12:33;20.30;54.60
38237;DHT22;50101;49.438;11.098;2023-05-02T05:15:00;20.20;54.50
38237;DHT22;50101;49.438;11.098;2023-05-02T05:17:27;20.20;54.80
38237;DHT22;50101;49.438;11.098;2023-05-02T05:19:53;20.30;55.00
38237;DHT22;50101;49.438;11.098;2023-05-02T05:22:20;20.20;55.20
38237;DHT22;50101;49.438;11.098;2023-05-02T05:24:54;20.20;55.10
38237;DHT22;50101;49.438;11.098;2023-05-02T05:27:20;20.20;55.20
38237;DHT22;50101;49.438;11.098;2023-05-02T05:29:47;20.10;55.30
38237;DHT22;50101;49.438;11.098;2023-05-02T05:32:14;20.10;55.40
38237;DHT22;50101;49.438;11.098;2023-05-02T05:34:41;20.10;55.00
38237;DHT22;50101;49.438;11.098;2023-05-02T05:37:07;20.10;55.50
38237;DHT22;50101;49.438;11.098;2023-05-02T05:39:34;20.10;55.50
38237;DHT22;50101;49.438;11.098;2023-05-02T05:42:01;20.20;55.60
38237;DHT22;50101;49.438;11.098;2023-05-02T05:44:28;20.10;55.50
38237;DHT22;50101;49.438;11.098;2023-05-02T05:46:55;20.20;55.50
38237;DHT22;50101;49.438;11.098;2023-05-02T05:49:22;20.20;55.50
38237;DHT22;50101;49.438;11.098;2023-05-02T05:51:49;20.20;55.60
38237;DHT22;50101;49.438;11.098;2023-05-02T05:54:17;20.20;55.10
38237;DHT22;50101;49.438;11.098;2023-05-02T05:56:44;20.20;55.50
38237;DHT22;50101;49.438;11.098;2023-05-02T05:59:11;20.20;55.50
38237;DHT22;50101;49.438;11.098;2023-05-02T06:01:38;20.20;55.50
38237;DHT22;50101;49.438;11.098;2023-05-02T06:04:06;20.30;55.60
38237;DHT22;50101;49.438;11.098;2023-05-02T06:06:34;20.30;55.60
38237;DHT22;50101;49.438;11.098;2023-05-02T06:09:00;20.30;55.50
38237;DHT22;50101;49.438;11.098;2023-05-02T06:11:27;20.30;55.50
38237;DHT22;50101;49.438;11.098;2023-05-02T06:13:54;20.40;55.60
38237;DHT22;50101;49.438;11.098;2023-05-02T06:16:21;20.40;55.50
38237;DHT22;50101;49.438;11.098;2023-05-02T06:18:50;20.40;55.40
38237;DHT22;50101;49.438;11.098;2023-05-02T06:21:18;20.40;55.40
38237;DHT22;50101;49.438;11.098;2023-05-02T06:23:45;20.40;55.40
38237;DHT22;50101;49.438;11.098;2023-05-02T06:26:14;20.40;55.40
38237;DHT22;50101;49.438;11.098;2023-05-02T06:28:41;20.40;55.50
38237;DHT22;50101;49.438;11.098;2023-05-02T06:31:09;20.40;55.30
38237;DHT22;50101;49.438;11.098;2023-05-02T06:33:36;20.40;55.30
38237;DHT22;50101;49.438;11.098;2023-05-02T06:36:03;20.50;55.30
38237;DHT22;50101;49.438;11.098;2023-05-02T06:38:29;20.50;55.30
38237;DHT22;50101;49.438;11.098;2023-05-02T06:40:56;20.40;55.30
38237;DHT22;50101;49.438;11.098;2023-05-02T06:43:23;20.40;55.30
38237;DHT22;50101;49.438;11.098;2023-05-02T06:45:52;20.40;55.30
38237;DHT22;50101;49.438;11.098;2023-05-02T06:48:19;20.40;55.30
38237;DHT22;50101;49.438;11.098;2023-05-02T06:50:47;20.50;55.40
38237;DHT22;50101;49.438;11.098;2023-05-02T06:53:14;20.50;55.40
38237;DHT22;50101;49.438;11.098;2023-05-02T06:55:43;20.40;55.30
38237;DHT22;50101;49.438;11.098;2023-05-02T06:58:09;20.50;55.30
38237;DHT22;50101;49.438;11.098;2023-05-02T07:00:36;20.50;55.20
38237;DHT22;50101;49.438;11.098;2023-05-02T07:03:03;20.50;55.20
38237;DHT22;50101;49.438;11.098;2023-05-02T07:05:29;20.50;55.20
38237;DHT22;50101;49.438;11.098;2023-05-02T07:07:56;20.50;55.20
38237;DHT22;50101;49.438;11.098;2023-05-02T07:10:23;20.50;55.20
38237;DHT22;50101;49.438;11.098;2023-05-02T07:12:50;20.50;55.20
38237;DHT22;50101;49.438;11.098;2023-05-02T07:15:16;20.50;55.30
38237;DHT22;50101;49.438;11.098;2023-05-02T07:17:43;20.50;55.30
38237;DHT22;50101;49.438;11.098;2023-05-02T07:20:12;20.50;55.30
38237;DHT22;50101;49.438;11.098;2023-05-02T07:22:40;20.50;55.40
38237;DHT22;50101;49.438;11.098;2023-05-02T07:25:06;20.50;55.40
38237;DHT22;50101;49.438;11.098;2023-05-02T07:27:34;20.50;55.40
38237;DHT22;50101;49.438;11.098;2023-05-02T07:30:00;20.50;55.50
38237;DHT22;50101;49.438;11.098;2023-05-02T07:32:27;20.50;55.40
38237;DHT22;50101;49.438;11.098;2023-05-02T07:34:54;20.60;55.50
38237;DHT22;50101;49.438;11.098;2023-05-02T07:37:24;20.50;55.40
38237;DHT22;50101;49.438;11.098;2023-05-02T07:39:50;20.50;55.50
38237;DHT22;50101;49.438;11.098;2023-05-02T07:42:17;20.50;55.60
38237;DHT22;50101;49.438;11.098;2023-05-02T07:44:44;20.50;55.50
38237;DHT22;50101;49.438;11.098;2023-05-02T07:47:10;20.50;55.40
38237;DHT22;50101;49.438;11.098;2023-05-02T07:49:37;20.50;55.50
38237;DHT22;50101;49.438;11.098;2023-05-02T07:52:03;20.50;55.40
38237;DHT22;50101;49.438;11.098;2023-05-02T07:54:30;20.50;55.40
38237;DHT22;50101;49.438;11.098;2023-05-02T07:56:57;20.50;55.40
38237;DHT22;50101;49.438;11.098;2023-05-02T07:59:29;20.50;56.10
38237;DHT22;50101;49.438;11.098;2023-05-02T08:01:56;20.50;55.40
38237;DHT22;50101;49.438;11.098;2023-05-02T08:04:22;20.50;55.30
38237;DHT22;50101;49.438;11.098;2023-05-02T08:06:49;20.50;55.30
38237;DHT22;50101;49.438;11.098;2023-05-02T08:09:16;20.50;55.40
38237;DHT22;50101;49.438;11.098;2023-05-02T08:11:43;20.50;55.30
38237;DHT22;50101;49.438;11.098;2023-05-02T08:14:10;20.50;55.30
38237;DHT22;50101;49.438;11.098;2023-05-02T08:16:36;20.50;55.30
38237;DHT22;50101;49.438;11.098;2023-05-02T08:19:03;20.50;55.30
38237;DHT22;50101;49.438;11.098;2023-05-02T08:21:30;20.60;55.40
38237;DHT22;50101;49.438;11.098;2023-05-02T08:23:58;20.60;55.40
38237;DHT22;50101;49.438;11.098;2023-05-02T08:26:25;20.50;55.30
38237;DHT22;50101;49.438;11.098;2023-05-02T08:28:52;20.50;55.40
38237;DHT22;50101;49.438;11.098;2023-05-02T08:31:19;20.50;55.30
38237;DHT22;50101;49.438;11.098;2023-05-02T08:33:46;20.60;55.30
38237;DHT22;50101;49.438;11.098;2023-05-02T08:36:14;20.50;55.30
38237;DHT22;50101;49.438;11.098;2023-05-02T08:38:42;20.50;55.30
38237;DHT22;50101;49.438;11.098;2023-05-02T08:41:18;20.60;55.30
38237;DHT22;50101;49.438;11.098;2023-05-02T08:43:46;20.60;55.30
38237;DHT22;50101;49.438;11.098;2023-05-02T08:46:14;20.60;55.40
38237;DHT22;50101;49.438;11.098;2023-05-02T08:48:44;20.50;55.40
38237;DHT22;50101;49.438;11.098;2023-05-02T08:51:14;20.50;55.40
38237;DHT22;50101;49.438;11.098;2023-05-02T08:53:41;20.50;55.40
38237;DHT22;50101;49.438;11.098;2023-05-02T08:56:09;20.50;55.30
38237;DHT22;50101;49.438;11.098;2023-05-02T08:58:38;20.50;55.30
38237;DHT22;50101;49.438;11.098;2023-05-02T09:01:18;20.50;55.40
38237;DHT22;50101;49.438;11.098;2023-05-02T09:03:48;20.50;55.30
38237;DHT22;50101;49.438;11.098;2023-05-02T09:06:19;20.50;55.30
38237;DHT22;50101;49.438;11.098;2023-05-02T09:08:50;20.50;55.40
38237;DHT22;50101;49.438;11.098;2023-05-02T09:11:20;20.60;55.50
38237;DHT22;50101;49.438;11.098;2023-05-02T09:13:49;20.60;55.50
38237;DHT22;50101;49.438;11.098;2023-05-02T09:16:19;20.60;55.50
38237;DHT22;50101;49.438;11.098;2023-05-02T09:18:53;20.60;55.50
38237;DHT22;50101;49.438;11.098;2023-05-02T09:21:22;20.50;55.40
38237;DHT22;50101;49.438;11.098;2023-05-02T09:23:54;20.50;55.40
38237;DHT22;50101;49.438;11.098;2023-05-02T09:26:23;20.50;55.40
38237;DHT22;50101;49.438;11.098;2023-05-02T09:28:52;20.50;55.40
38237;DHT22;50101;49.438;11.098;2023-05-02T09:31:20;20.60;55.80
38237;DHT22;50101;49.438;11.098;2023-05-02T09:34:15;20.60;55.70
38237;DHT22;50101;49.438;11.098;2023-05-02T09:39:15;20.60;55.80
38237;DHT22;50101;49.438;11.098;2023-05-02T09:41:46;20.60;55.70
38237;DHT22;50101;49.438;11.098;2023-05-02T09:44:18;20.60;55.60
38237;DHT22;50101;49.438;11.098;2023-05-02T09:46:50;20.60;55.50
38237;DHT22;50101;49.438;11.098;2023-05-02T09:49:17;20.60;55.50
38237;DHT22;50101;49.438;11.098;2023-05-02T09:51:45;20.60;55.50
38237;DHT22;50101;49.438;11.098;2023-05-02T09:54:13;20.60;55.50
38237;DHT22;50101;49.438;11.098;2023-05-02T09:56:56;20.60;55.40
38237;DHT22;50101;49.438;11.098;2023-05-02T09:59:23;20.60;55.40
38237;DHT22;50101;49.438;11.098;2023-05-02T10:02:01;20.60;55.40
38237;DHT22;50101;49.438;11.098;2023-05-02T10:04:30;20.60;55.40
38237;DHT22;50101;49.438;11.098;2023-05-02T10:06:58;20.60;55.40
38237;DHT22;50101;49.438;11.098;2023-05-02T10:09:25;20.60;55.30
38237;DHT22;50101;49.438;11.098;2023-05-02T10:11:53;20.60;55.30
38237;DHT22;50101;49.438;11.098;2023-05-02T10:14:21;20.60;55.30
38237;DHT22;50101;49.438;11.098;2023-05-02T10:16:58;20.60;55.30
38237;DHT22;50101;49.438;11.098;2023-05-02T10:19:44;20.60;55.30
38237;DHT22;50101;49.438;11.098;2023-05-02T10:22:14;20.70;55.30
38237;DHT22;50101;49.438;11.098;2023-05-02T10:24:45;20.70;55.30
38237;DHT22;50101;49.438;11.098;2023-05-02T10:27:12;20.70;55.30
38237;DHT22;50101;49.438;11.098;2023-05-02T10:29:39;20.70;55.30
38237;DHT22;50101;49.438;11.098;2023-05-02T10:32:08;20.70;55.40
38237;DHT22;50101;49.438;11.098;2023-05-02T10:34:35;20.70;56.10
38237;DHT22;50101;49.438;11.098;2023-05-02T10:37:02;20.70;55.50
38237;DHT22;50101;49.438;11.098;2023-05-02T10:39:29;20.70;55.70
38237;DHT22;50101;49.438;11.098;2023-05-02T10:41:58;20.70;55.50
38237;DHT22;50101;49.438;11.098;2023-05-02T10:44:34;20.70;55.80
38237;DHT22;50101;49.438;11.098;2023-05-02T10:49:58;20.70;55.60
38237;DHT22;50101;49.438;11.098;2023-05-02T10:52:29;20.70;55.70
38237;DHT22;50101;49.438;11.098;2023-05-02T10:55:20;20.70;55.60
38237;DHT22;50101;49.438;11.098;2023-05-02T11:00:31;20.70;55.70
38237;DHT22;50101;49.438;11.098;2023-05-02T11:02:59;20.70;55.80
38237;DHT22;50101;49.438;11.098;2023-05-02T11:05:27;20.70;55.70
38237;DHT22;50101;49.438;11.098;2023-05-02T11:10:46;20.80;55.80
38237;DHT22;50101;49.438;11.098;2023-05-02T11:13:12;20.70;55.80
38237;DHT22;50101;49.438;11.098;2023-05-02T11:18:12;20.80;55.90
38237;DHT22;50101;49.438;11.098;2023-05-02T11:20:41;20.80;56.00
38237;DHT22;50101;49.438;11.098;2023-05-02T11:25:42;20.70;56.00
38237;DHT22;50101;49.438;11.098;2023-05-02T11:33:57;20.70;56.00
38237;DHT22;50101;49.438;11.098;2023-05-02T11:36:29;20.70;56.00
38237;DHT22;50101;49.438;11.098;2023-05-02T11:38:55;20.70;56.00
38237;DHT22;50101;49.438;11.098;2023-05-02T11:41:22;20.70;56.60
38237;DHT22;50101;49.438;11.098;2023-05-02T11:44:02;20.70;56.20
38237;DHT22;50101;49.438;11.098;2023-05-02T11:46:29;20.70;56.40
38237;DHT22;50101;49.438;11.098;2023-05-02T11:48:56;20.90;56.30
38237;DHT22;50101;49.438;11.098;2023-05-02T11:51:23;21.00;56.20
38237;DHT22;50101;49.438;11.098;2023-05-02T11:53:50;21.00;56.20
38237;DHT22;50101;49.438;11.098;2023-05-02T11:56:23;20.80;56.30
38237;DHT22;50101;49.438;11.098;2023-05-02T11:59:00;20.80;56.60
38237;DHT22;50101;49.438;11.098;2023-05-02T12:01:27;20.70;56.90
38237;DHT22;50101;49.438;11.098;2023-05-02T12:04:04;20.70;56.90
38237;DHT22;50101;49.438;11.098;2023-05-02T12:06:33;20.70;56.80
38237;DHT22;50101;49.438;11.098;2023-05-02T12:09:14;20.70;56.90
38237;DHT22;50101;49.438;11.098;2023-05-02T12:11:42;20.70;56.90
38237;DHT22;50101;49.438;11.098;2023-05-02T12:14:10;20.70;57.00
38237;DHT22;50101;49.438;11.098;2023-05-02T12:16:36;20.70;57.00
38237;DHT22;50101;49.438;11.098;2023-05-02T12:19:04;20.70;57.30
38237;DHT22;50101;49.438;11.098;2023-05-02T12:21:31;20.90;57.00
38237;DHT22;50101;49.438;11.098;2023-05-02T12:24:00;20.50;53.70
38237;DHT22;50101;49.438;11.098;2023-05-02T12:26:27;20.50;54.20
38237;DHT22;50101;49.438;11.098;2023-05-02T12:28:59;20.50;55.00
38237;DHT22;50101;49.438;11.098;2023-05-02T12:31:28;20.40;54.80
38237;DHT22;50101;49.438;11.098;2023-05-02T12:33:57;20.40;52.90
38237;DHT22;50101;49.438;11.098;2023-05-02T12:36:26;20.30;53.40
38237;DHT22;50101;49.438;11.098;2023-05-02T12:38:57;20.30;52.70
38237;DHT22;50101;49.438;11.098;2023-05-02T12:44:00;20.30;52.50
38237;DHT22;50101;49.438;11.098;2023-05-02T12:46:27;20.20;51.90
38237;DHT22;50101;49.438;11.098;2023-05-02T12:49:09;20.30;53.20
38237;DHT22;50101;49.438;11.098;2023-05-02T12:51:39;20.40;52.70
38237;DHT22;50101;49.438;11.098;2023-05-02T12:54:06;20.50;51.90
38237;DHT22;50101;49.438;11.098;2023-05-02T12:56:40;20.50;52.40
38237;DHT22;50101;49.438;11.098;2023-05-02T12:59:06;20.50;52.90
38237;DHT22;50101;49.438;11.098;2023-05-02T13:01:33;20.60;53.10
38237;DHT22;50101;49.438;11.098;2023-05-02T13:04:01;20.70;53.20
38237;DHT22;50101;49.438;11.098;2023-05-02T13:06:28;20.70;52.60
38237;DHT22;50101;49.438;11.098;2023-05-02T13:08:55;20.60;51.50
38237;DHT22;50101;49.438;11.098;2023-05-02T13:11:21;20.60;52.00
38237;DHT22;50101;49.438;11.098;2023-05-02T13:13:48;20.50;51.80
38237;DHT22;50101;49.438;11.098;2023-05-02T13:16:14;20.60;51.90
38237;DHT22;50101;49.438;11.098;2023-05-02T13:18:42;20.50;51.30
38237;DHT22;50101;49.438;11.098;2023-05-02T13:21:11;20.50;51.90
38237;DHT22;50101;49.438;11.098;2023-05-02T13:23:38;20.40;51.20
38237;DHT22;50101;49.438;11.098;2023-05-02T13:26:06;20.30;51.40
38237;DHT22;50101;49.438;11.098;2023-05-02T13:28:33;20.30;51.30
38237;DHT22;50101;49.438;11.098;2023-05-02T13:31:01;20.00;50.80
38237;DHT22;50101;49.438;11.098;2023-05-02T13:33:27;20.10;51.30
38237;DHT22;50101;49.438;11.098;2023-05-02T13:35:54;20.10;50.90
38237;DHT22;50101;49.438;11.098;2023-05-02T13:38:21;20.10;51.30
38237;DHT22;50101;49.438;11.098;2023-05-02T13:40:47;20.00;51.00
38237;DHT22;50101;49.438;11.098;2023-05-02T13:43:15;20.00;50.90
38237;DHT22;50101;49.438;11.098;2023-05-02T13:45:41;19.90;51.00
38237;DHT22;50101;49.438;11.098;2023-05-02T13:48:08;19.80;50.60
38237;DHT22;50101;49.438;11.098;2023-05-02T13:50:35;19.80;50.70
38237;DHT22;50101;49.438;11.098;2023-05-02T13:53:03;19.80;50.70
38237;DHT22;50101;49.438;11.098;2023-05-02T13:55:30;19.70;50.40
38237;DHT22;50101;49.438;11.098;2023-05-02T13:57:57;19.60;50.50
38237;DHT22;50101;49.438;11.098;2023-05-02T14:00:23;19.60;50.90
38237;DHT22;50101;49.438;11.098;2023-05-02T14:02:50;19.50;50.90
38237;DHT22;50101;49.438;11.098;2023-05-02T14:05:18;19.40;51.30
38237;DHT22;50101;49.438;11.098;2023-05-02T14:07:45;19.40;51.10
38237;DHT22;50101;49.438;11.098;2023-05-02T14:10:12;19.40;51.30
38237;DHT22;50101;49.438;11.098;2023-05-02T14:12:38;19.60;52.20
38237;DHT22;50101;49.438;11.098;2023-05-02T14:15:06;19.90;52.00
38237;DHT22;50101;49.438;11.098;2023-05-02T14:17:33;20.20;51.80
38237;DHT22;50101;49.438;11.098;2023-05-02T14:19:59;20.40;51.70
38237;DHT22;50101;49.438;11.098;2023-05-02T14:22:26;20.60;51.70
38237;DHT22;50101;49.438;11.098;2023-05-02T14:24:53;20.70;51.80
38237;DHT22;50101;49.438;11.098;2023-05-02T14:27:20;20.80;51.70
38237;DHT22;50101;49.438;11.098;2023-05-02T14:29:47;20.80;52.00
38237;DHT22;50101;49.438;11.098;2023-05-02T14:32:14;20.90;52.10
38237;DHT22;50101;49.438;11.098;2023-05-02T14:34:40;21.00;52.20
38237;DHT22;50101;49.438;11.098;2023-05-02T14:37:07;20.80;54.60
38237;DHT22;50101;49.438;11.098;2023-05-02T14:39:35;20.80;53.70
38237;DHT22;50101;49.438;11.098;2023-05-02T14:42:02;21.00;53.80
38237;DHT22;50101;49.438;11.098;2023-05-02T14:44:29;21.10;53.60
38237;DHT22;50101;49.438;11.098;2023-05-02T14:46:56;21.20;53.60
38237;DHT22;50101;49.438;11.098;2023-05-02T14:49:23;21.30;53.60
38237;DHT22;50101;49.438;11.098;2023-05-02T14:51:51;21.40;53.70
38237;DHT22;50101;49.438;11.098;2023-05-02T14:54:18;21.40;53.70
38237;DHT22;50101;49.438;11.098;2023-05-02T14:56:45;21.30;54.20
38237;DHT22;50101;49.438;11.098;2023-05-02T14:59:13;21.40;54.40
38237;DHT22;50101;49.438;11.098;2023-05-02T15:01:40;21.50;54.30
38237;DHT22;50101;49.438;11.098;2023-05-02T15:04:07;21.50;54.30
38237;DHT22;50101;49.438;11.098;2023-05-02T15:06:34;21.60;54.30
38237;DHT22;50101;49.438;11.098;2023-05-02T15:09:02;21.60;54.30
38237;DHT22;50101;49.438;11.098;2023-05-02T15:11:29;21.60;54.10
38237;DHT22;50101;49.438;11.098;2023-05-02T15:13:55;21.40;53.70
38237;DHT22;50101;49.438;11.098;2023-05-02T15:16:25;21.30;53.60
38237;DHT22;50101;49.438;11.098;2023-05-02T15:18:54;21.20;53.60
38237;DHT22;50101;49.438;11.098;2023-05-02T15:21:21;21.10;53.00
38237;DHT22;50101;49.438;11.098;2023-05-02T15:23:48;20.90;53.00
38237;DHT22;50101;49.438;11.098;2023-05-02T15:26:15;20.90;54.00
38237;DHT22;50101;49.438;11.098;2023-05-02T15:28:41;20.80;52.40
38237;DHT22;50101;49.438;11.098;2023-05-02T15:31:08;20.80;51.70
38237;DHT22;50101;49.438;11.098;2023-05-02T15:33:36;20.80;52.70
38237;DHT22;50101;49.438;11.098;2023-05-02T15:36:03;20.70;51.20
38237;DHT22;50101;49.438;11.098;2023-05-02T15:38:30;20.70;51.20
38237;DHT22;50101;49.438;11.098;2023-05-02T15:40:59;20.60;50.50
38237;DHT22;50101;49.438;11.098;2023-05-02T15:43:26;20.70;51.40
38237;DHT22;50101;49.438;11.098;2023-05-02T15:45:55;20.70;51.40
38237;DHT22;50101;49.438;11.098;2023-05-02T15:48:27;20.70;53.60
38237;DHT22;50101;49.438;11.098;2023-05-02T15:50:54;20.70;53.80
38237;DHT22;50101;49.438;11.098;2023-05-02T15:53:21;20.70;53.80
38237;DHT22;50101;49.438;11.098;2023-05-02T15:55:50;20.70;53.10
38237;DHT22;50101;49.438;11.098;2023-05-02T15:58:17;20.80;52.30
38237;DHT22;50101;49.438;11.098;2023-05-02T16:00:45;20.80;51.50